Time;durP1;ratioP1;P1;durP2;ratioP2;P2;SDS_P1;SDS_P2;PMS_P1;PMS_P2;Temp;Humidity;BMP_temperature;BMP_pressure;BME280_temperature;BME280_humidity;BME280_pressure;Samples;Min_cycle;Max_cycle;Signal;HPM_P1;HPM_P2
2022/02/19 00:00:50;;;;;;;3.50;1.17;;;6.30;99.90;;;;;;5027422;28;20327;-61
2022/02/19 00:03:20;;;;;;;11.00;2.40;;;6.30;99.90;;;;;;5040616;28;20716;-61
2022/02/19 00:05:48;;;;;;;7.53;1.73;;;6.30;99.90;;;;;;5047199;28;20671;-61
2022/02/19 00:08:16;;;;;;;8.87;2.10;;;6.40;99.90;;;;;;5022323;28;21417;-61
2022/02/19 00:10:45;;;;;;;6.23;1.20;;;6.30;99.90;;;;;;5030992;28;20240;-62
2022/02/19 00:13:13;;;;;;;7.90;1.30;;;6.40;99.90;;;;;;5031591;28;20747;-61
2022/02/19 00:15:41;;;;;;;8.60;1.77;;;6.40;99.90;;;;;;5030876;28;20240;-61
2022/02/19 00:18:11;;;;;;;12.00;2.57;;;6.30;99.90;;;;;;5031556;28;20577;-61
2022/02/19 00:20:40;;;;;;;10.63;1.97;;;6.30;99.90;;;;;;5032055;28;20610;-62
2022/02/19 00:23:09;;;;;;;10.30;1.80;;;6.30;99.90;;;;;;5031398;28;20315;-62
2022/02/19 00:25:37;;;;;;;7.47;1.97;;;6.30;99.90;;;;;;5030700;28;20244;-62
2022/02/19 00:28:05;;;;;;;7.70;2.57;;;6.30;99.90;;;;;;5031614;28;20623;-62
2022/02/19 00:30:36;;;;;;;2.20;0.87;;;6.30;99.90;;;;;;5029833;28;20352;-61
2022/02/19 00:33:04;;;;;;;11.83;2.70;;;6.30;99.90;;;;;;5031786;28;20243;-61
2022/02/19 00:35:32;;;;;;;7.97;1.93;;;6.20;99.90;;;;;;5030859;28;20247;-61
2022/02/19 00:38:02;;;;;;;7.77;1.73;;;6.20;99.90;;;;;;5031413;28;20228;-61
2022/02/19 00:40:30;;;;;;;7.60;1.83;;;6.20;99.90;;;;;;5030466;28;20229;-61
2022/02/19 00:42:58;;;;;;;8.07;2.17;;;6.20;99.90;;;;;;5031499;28;20229;-61
2022/02/19 00:45:26;;;;;;;8.93;1.60;;;6.10;99.90;;;;;;5030555;28;20246;-61
2022/02/19 00:47:55;;;;;;;7.20;1.90;;;6.00;99.90;;;;;;5031187;28;20244;-61
2022/02/19 00:50:23;;;;;;;6.70;2.03;;;6.00;99.90;;;;;;5031042;28;20235;-61
2022/02/19 00:52:55;;;;;;;13.47;1.93;;;5.90;99.90;;;;;;5031017;28;20240;-62
2022/02/19 00:55:24;;;;;;;9.30;2.00;;;5.80;99.90;;;;;;5030319;28;20271;-61
2022/02/19 00:57:53;;;;;;;10.03;1.93;;;5.70;99.90;;;;;;5029697;28;20544;-61
2022/02/19 01:00:22;;;;;;;7.77;2.13;;;5.50;99.90;;;;;;5030030;28;20235;-61
2022/02/19 01:03:04;;;;;;;7.93;2.03;;;5.40;99.90;;;;;;5029665;28;20513;-61
2022/02/19 01:05:32;;;;;;;3.13;1.43;;;5.40;99.90;;;;;;5030283;28;20475;-61
2022/02/19 01:08:00;;;;;;;7.57;1.40;;;5.30;99.90;;;;;;5030806;28;20232;-61
2022/02/19 01:10:34;;;;;;;6.13;1.77;;;5.30;99.90;;;;;;5029200;28;20498;-61
2022/02/19 01:13:02;;;;;;;12.57;1.50;;;5.30;99.90;;;;;;5030763;28;20471;-61
2022/02/19 01:15:30;;;;;;;5.00;1.30;;;5.30;99.90;;;;;;5029911;28;20235;-61
2022/02/19 01:17:58;;;;;;;8.73;1.70;;;5.20;99.90;;;;;;5029087;28;20323;-61
2022/02/19 01:20:27;;;;;;;11.83;1.50;;;5.30;99.90;;;;;;5031335;28;20739;-61
2022/02/19 01:22:55;;;;;;;9.43;1.53;;;5.20;99.90;;;;;;5030707;28;20243;-61
2022/02/19 01:25:23;;;;;;;9.67;1.60;;;5.20;99.90;;;;;;5029912;28;20239;-62
2022/02/19 01:27:55;;;;;;;9.17;1.77;;;5.20;99.90;;;;;;5029333;28;20487;-62
2022/02/19 01:30:23;;;;;;;5.00;1.57;;;5.10;99.90;;;;;;5029023;28;20237;-61
2022/02/19 01:32:56;;;;;;;8.10;1.53;;;5.10;99.90;;;;;;5030559;28;20546;-62
2022/02/19 01:35:25;;;;;;;6.57;1.27;;;5.00;99.90;;;;;;5032514;28;20697;-61
2022/02/19 01:37:54;;;;;;;4.20;1.27;;;5.00;99.90;;;;;;5033406;28;20486;-61
2022/02/19 01:40:22;;;;;;;5.47;1.60;;;5.00;99.90;;;;;;5033641;28;20532;-61
2022/02/19 01:42:50;;;;;;;6.07;1.47;;;4.90;99.90;;;;;;5033266;28;20894;-61
2022/02/19 01:45:23;;;;;;;8.23;1.63;;;4.90;99.90;;;;;;5032587;28;20543;-61
2022/02/19 01:47:53;;;;;;;4.40;0.73;;;4.90;99.90;;;;;;5033148;28;20560;-61
2022/02/19 01:50:21;;;;;;;9.83;1.60;;;4.90;99.90;;;;;;5034416;28;20235;-61
2022/02/19 01:52:51;;;;;;;6.77;1.10;;;4.90;99.90;;;;;;5032921;28;20467;-61
2022/02/19 01:55:25;;;;;;;6.60;1.20;;;4.90;99.90;;;;;;5032047;28;20243;-62
2022/02/19 01:58:13;;;;;;;5.67;1.40;;;4.80;99.90;;;;;;5032691;28;20577;-61
2022/02/19 02:01:01;;;;;;;5.67;1.17;;;4.80;99.90;;;;;;5034874;28;20874;-61
2022/02/19 02:03:58;;;;;;;7.03;1.70;;;4.80;99.90;;;;;;5027974;28;20252;-61
2022/02/19 02:06:31;;;;;;;6.30;1.50;;;4.80;99.90;;;;;;5012710;28;20491;-62
2022/02/19 02:09:03;;;;;;;5.40;1.57;;;4.90;99.90;;;;;;5037815;28;20857;-61
2022/02/19 02:11:37;;;;;;;9.57;1.60;;;4.80;99.90;;;;;;5034840;28;20200;-61
2022/02/19 02:14:08;;;;;;;12.03;1.90;;;4.90;99.90;;;;;;5027252;28;20862;-62
2022/02/19 02:16:50;;;;;;;10.23;1.80;;;4.90;99.90;;;;;;5036155;28;20481;-61
2022/02/19 02:19:20;;;;;;;9.87;1.67;;;5.00;99.90;;;;;;5041084;28;20561;-61
2022/02/19 02:22:04;;;;;;;9.67;2.40;;;5.00;99.90;;;;;;5032277;28;20482;-61
2022/02/19 02:24:34;;;;;;;11.23;2.27;;;5.10;99.90;;;;;;5032995;28;20509;-61
2022/02/19 02:27:07;;;;;;;14.00;1.90;;;5.10;99.90;;;;;;5032606;28;20479;-61
2022/02/19 02:29:41;;;;;;;12.83;1.93;;;5.10;99.90;;;;;;5032042;28;20255;-62
2022/02/19 02:32:09;;;;;;;14.60;2.17;;;5.10;99.90;;;;;;5031972;28;20243;-62
2022/02/19 02:34:49;;;;;;;15.73;2.50;;;5.10;99.90;;;;;;5026930;28;20466;-62
2022/02/19 02:37:19;;;;;;;12.03;2.20;;;5.10;99.90;;;;;;5038316;28;20474;-62
2022/02/19 02:39:48;;;;;;;16.70;2.70;;;5.10;99.90;;;;;;5038430;28;20534;-61
2022/02/19 02:42:17;;;;;;;14.50;3.43;;;5.20;99.90;;;;;;5032870;28;20478;-62
2022/02/19 02:44:46;;;;;;;15.33;2.47;;;5.20;99.90;;;;;;5030747;28;20501;-61
2022/02/19 02:47:37;;;;;;;11.77;2.53;;;5.20;99.90;;;;;;5031643;28;20490;-61
2022/02/19 02:50:06;;;;;;;11.67;2.23;;;5.20;99.90;;;;;;5031937;28;20475;-62
2022/02/19 02:52:37;;;;;;;11.33;1.93;;;5.20;99.90;;;;;;5032474;28;20486;-61
2022/02/19 02:55:07;;;;;;;8.70;2.03;;;5.20;99.90;;;;;;5025217;28;20601;-62
2022/02/19 02:57:36;;;;;;;8.87;1.83;;;5.20;99.90;;;;;;5030943;28;20489;-61
2022/02/19 03:00:13;;;;;;;17.97;2.50;;;5.20;99.90;;;;;;5036075;28;20536;-61
2022/02/19 03:02:43;;;;;;;13.00;1.93;;;5.20;99.90;;;;;;5030999;28;20505;-62
2022/02/19 03:05:13;;;;;;;11.20;2.27;;;5.30;99.90;;;;;;5031568;28;20471;-61
2022/02/19 03:07:44;;;;;;;10.33;2.10;;;5.30;99.90;;;;;;5031538;28;20233;-61
2022/02/19 03:10:16;;;;;;;16.53;3.00;;;5.30;99.90;;;;;;5031652;28;20255;-61
2022/02/19 03:12:44;;;;;;;12.00;2.43;;;5.30;99.90;;;;;;5030719;28;20244;-61
2022/02/19 03:15:18;;;;;;;11.70;2.37;;;5.30;99.90;;;;;;5031576;28;20292;-62
2022/02/19 03:17:50;;;;;;;13.97;3.10;;;5.30;99.90;;;;;;5041764;28;20292;-61
2022/02/19 03:20:27;;;;;;;13.33;2.70;;;5.30;99.90;;;;;;5032052;28;20752;-62
2022/02/19 03:22:57;;;;;;;12.53;2.60;;;5.30;99.90;;;;;;5030503;28;20477;-61
2022/02/19 03:25:25;;;;;;;12.13;1.70;;;5.30;99.90;;;;;;5012191;28;20491;-62
2022/02/19 03:27:56;;;;;;;12.33;2.27;;;5.30;99.90;;;;;;5011530;28;20487;-61
2022/02/19 03:30:30;;;;;;;13.47;2.63;;;5.30;99.90;;;;;;5031071;28;20483;-61
2022/02/19 03:33:03;;;;;;;13.67;2.27;;;5.30;99.90;;;;;;5030395;28;20465;-62
2022/02/19 03:35:32;;;;;;;10.33;2.23;;;5.30;99.90;;;;;;5030954;28;20472;-61
2022/02/19 03:38:02;;;;;;;13.23;2.73;;;5.30;99.90;;;;;;5043337;28;20471;-62
2022/02/19 03:40:48;;;;;;;6.93;1.20;;;5.30;99.90;;;;;;5010759;28;20471;-62
2022/02/19 03:43:16;;;;;;;2.40;1.07;;;4.70;99.90;;;;;;5013527;28;20475;-61
2022/02/19 03:45:45;;;;;;;7.43;1.20;;;4.30;99.90;;;;;;5030131;28;20848;-62
2022/02/19 03:48:48;;;;;;;3.03;0.60;;;4.10;99.90;;;;;;5031089;28;20236;-62
2022/02/19 03:51:19;;;;;;;2.37;0.80;;;3.90;99.90;;;;;;5030764;28;20485;-62
2022/02/19 03:53:50;;;;;;;4.57;0.70;;;3.70;99.90;;;;;;5031723;28;20471;-62
2022/02/19 03:56:23;;;;;;;1.70;0.63;;;3.60;99.90;;;;;;5012797;28;20552;-62
2022/02/19 03:58:57;;;;;;;4.20;0.70;;;3.70;99.90;;;;;;5009860;28;20486;-61
2022/02/19 04:01:26;;;;;;;6.27;0.90;;;3.70;99.90;;;;;;5010347;28;20468;-62
2022/02/19 04:03:58;;;;;;;5.63;1.37;;;3.70;99.90;;;;;;5010494;28;20487;-61
2022/02/19 04:06:27;;;;;;;4.47;1.20;;;3.80;99.90;;;;;;5010674;28;20976;-61
2022/02/19 04:08:58;;;;;;;8.73;1.63;;;3.80;99.90;;;;;;5010622;28;20506;-61
2022/02/19 04:11:27;;;;;;;11.57;1.77;;;3.90;99.90;;;;;;5012038;28;20524;-62
2022/02/19 04:13:56;;;;;;;10.47;2.13;;;4.10;99.90;;;;;;5009997;28;20472;-61
2022/02/19 04:16:28;;;;;;;8.63;1.67;;;4.20;99.90;;;;;;5010310;28;20893;-61
2022/02/19 04:18:58;;;;;;;9.53;2.47;;;4.30;99.90;;;;;;5010317;28;20480;-61
2022/02/19 04:21:27;;;;;;;8.70;1.37;;;4.40;99.90;;;;;;5011748;28;20815;-62
2022/02/19 04:23:55;;;;;;;12.43;1.40;;;4.40;99.90;;;;;;5010316;28;20481;-61
2022/02/19 04:26:26;;;;;;;6.73;1.10;;;4.40;99.90;;;;;;5010207;28;20527;-61
2022/02/19 04:28:55;;;;;;;6.20;0.80;;;4.40;99.90;;;;;;5010351;28;20996;-61
2022/02/19 04:31:33;;;;;;;3.57;0.90;;;4.20;99.90;;;;;;5009600;28;20555;-61
2022/02/19 04:34:12;;;;;;;7.83;1.40;;;4.10;99.90;;;;;;5010267;28;20464;-61
2022/02/19 04:36:41;;;;;;;7.53;1.00;;;4.10;99.90;;;;;;5009853;28;20481;-62
2022/02/19 04:39:10;;;;;;;5.40;1.03;;;4.00;99.90;;;;;;5009990;28;20475;-61
2022/02/19 04:41:40;;;;;;;4.77;1.00;;;4.00;99.90;;;;;;5009866;28;20471;-61
2022/02/19 04:44:14;;;;;;;8.80;1.73;;;4.10;99.90;;;;;;5011165;28;20842;-62
2022/02/19 04:46:43;;;;;;;7.23;1.33;;;4.00;99.90;;;;;;5013426;28;20258;-62
2022/02/19 04:49:12;;;;;;;8.40;1.60;;;4.00;99.90;;;;;;5010982;28;20840;-61
2022/02/19 04:51:42;;;;;;;6.23;1.40;;;3.90;99.90;;;;;;5008890;28;20464;-61
2022/02/19 04:54:10;;;;;;;7.77;1.20;;;3.90;99.90;;;;;;5009732;28;20534;-62
2022/02/19 04:56:40;;;;;;;6.40;1.20;;;3.90;99.90;;;;;;5009733;28;20835;-61
2022/02/19 04:59:10;;;;;;;5.80;1.53;;;3.90;99.90;;;;;;5009905;28;20971;-61
2022/02/19 05:01:42;;;;;;;11.10;1.30;;;4.00;99.90;;;;;;5009826;28;20886;-62
2022/02/19 05:04:19;;;;;;;7.80;1.50;;;4.10;99.90;;;;;;5010674;28;20478;-62
2022/02/19 05:07:03;;;;;;;8.83;1.20;;;4.20;99.90;;;;;;5009830;28;20534;-61
2022/02/19 05:09:32;;;;;;;7.00;1.93;;;4.20;99.90;;;;;;5009699;28;20543;-61
2022/02/19 05:12:06;;;;;;;6.57;1.20;;;4.20;99.90;;;;;;5010391;28;20542;-61
2022/02/19 05:14:37;;;;;;;5.10;1.40;;;4.20;99.90;;;;;;5008961;28;20487;-61
2022/02/19 05:17:19;;;;;;;6.27;1.33;;;4.20;99.90;;;;;;5009362;28;20512;-61
2022/02/19 05:19:52;;;;;;;5.37;0.73;;;4.20;99.90;;;;;;5009396;28;20980;-62
2022/02/19 05:22:21;;;;;;;5.13;1.37;;;4.30;99.90;;;;;;5009599;28;20549;-61
2022/02/19 05:24:53;;;;;;;7.40;1.00;;;4.30;99.90;;;;;;5009471;28;20833;-62
2022/02/19 05:27:24;;;;;;;5.10;1.40;;;4.30;99.90;;;;;;5009532;28;20476;-61
2022/02/19 05:29:55;;;;;;;4.87;0.77;;;4.30;99.90;;;;;;5009512;28;20475;-62
2022/02/19 05:32:26;;;;;;;4.60;0.90;;;4.30;99.90;;;;;;5009487;28;20530;-60
2022/02/19 05:35:02;;;;;;;3.57;0.90;;;4.30;99.90;;;;;;5009242;28;20480;-62
2022/02/19 05:37:31;;;;;;;7.63;1.10;;;4.30;99.90;;;;;;5009923;28;20482;-62
2022/02/19 05:40:00;;;;;;;5.87;1.43;;;4.30;99.90;;;;;;5009452;28;20998;-62
2022/02/19 05:42:32;;;;;;;9.90;1.70;;;4.30;99.90;;;;;;5009444;28;20476;-62
2022/02/19 05:45:19;;;;;;;5.97;1.07;;;4.20;99.90;;;;;;5028777;28;20471;-62
2022/02/19 05:47:51;;;;;;;7.87;1.17;;;4.20;99.90;;;;;;5028898;28;20553;-62
2022/02/19 05:50:37;;;;;;;4.40;0.90;;;4.10;99.90;;;;;;5029153;28;20478;-62
2022/02/19 05:53:18;;;;;;;7.03;1.33;;;4.00;99.90;;;;;;5028699;28;20477;-62
2022/02/19 05:55:48;;;;;;;2.13;0.70;;;3.90;99.90;;;;;;5030101;28;20470;-62
2022/02/19 05:58:18;;;;;;;6.30;0.97;;;3.70;99.90;;;;;;5041487;28;20549;-62
2022/02/19 06:01:14;;;;;;;4.10;0.77;;;3.60;99.90;;;;;;5009278;28;20485;-62
2022/02/19 06:03:47;;;;;;;7.27;1.33;;;3.60;99.90;;;;;;5028346;28;20838;-62
2022/02/19 06:06:19;;;;;;;3.57;0.80;;;3.60;99.90;;;;;;5026591;28;20485;-62
2022/02/19 06:08:48;;;;;;;5.23;0.70;;;3.60;99.90;;;;;;5015245;28;20865;-62
2022/02/19 06:11:17;;;;;;;3.30;0.97;;;3.60;99.90;;;;;;5030219;28;20465;-62
2022/02/19 06:14:05;;;;;;;3.80;0.90;;;3.60;99.90;;;;;;5030164;28;20847;-62
2022/02/19 06:16:41;;;;;;;5.10;0.83;;;3.60;99.90;;;;;;5029991;28;20471;-62
2022/02/19 06:19:09;;;;;;;2.67;0.70;;;3.70;99.90;;;;;;5040647;28;20465;-62
2022/02/19 06:21:38;;;;;;;5.83;0.80;;;3.70;99.90;;;;;;5032162;28;20477;-62
2022/02/19 06:24:07;;;;;;;5.63;1.33;;;3.70;99.90;;;;;;5032196;28;20505;-61
2022/02/19 06:26:36;;;;;;;4.17;1.03;;;3.80;99.90;;;;;;5032504;28;21425;-62
2022/02/19 06:29:20;;;;;;;4.27;1.10;;;3.80;99.90;;;;;;5031960;28;20990;-61
2022/02/19 06:31:53;;;;;;;3.77;0.80;;;3.90;99.90;;;;;;5031920;28;20568;-62
2022/02/19 06:34:21;;;;;;;4.40;1.00;;;3.90;99.90;;;;;;5033428;28;20490;-62
2022/02/19 06:36:50;;;;;;;3.83;1.00;;;3.90;99.90;;;;;;5034528;28;20827;-61
2022/02/19 06:39:24;;;;;;;3.73;1.00;;;4.00;99.90;;;;;;5040435;28;20523;-62
2022/02/19 06:41:52;;;;;;;7.50;0.93;;;4.00;99.90;;;;;;5031993;28;20505;-62
2022/02/19 06:44:27;;;;;;;5.27;0.77;;;4.10;99.90;;;;;;5031708;28;20481;-62
2022/02/19 06:46:57;;;;;;;4.07;1.10;;;4.10;99.90;;;;;;5032073;28;20484;-62
2022/02/19 06:49:25;;;;;;;2.83;0.57;;;4.10;99.90;;;;;;5031674;28;20252;-62
2022/02/19 06:51:57;;;;;;;4.03;0.73;;;4.10;99.90;;;;;;5031974;28;20486;-61
2022/02/19 06:54:25;;;;;;;3.40;0.70;;;4.20;99.90;;;;;;5031562;28;20489;-61
2022/02/19 06:56:55;;;;;;;2.70;0.57;;;4.10;99.90;;;;;;5034835;28;20469;-62
2022/02/19 06:59:25;;;;;;;2.43;0.50;;;4.20;99.90;;;;;;5039391;28;20510;-62
2022/02/19 07:01:55;;;;;;;1.80;0.60;;;4.20;99.90;;;;;;5031702;28;20479;-61
2022/02/19 07:04:26;;;;;;;4.37;0.80;;;4.10;99.90;;;;;;5031338;28;20529;-61
2022/02/19 07:06:54;;;;;;;4.43;0.70;;;4.20;99.90;;;;;;5033249;28;20518;-62
2022/02/19 07:09:25;;;;;;;2.47;0.70;;;4.20;99.90;;;;;;5031383;28;20475;-61
2022/02/19 07:11:56;;;;;;;2.83;0.50;;;4.10;99.90;;;;;;5031621;28;20481;-61
2022/02/19 07:14:26;;;;;;;3.47;0.70;;;4.20;99.90;;;;;;5031038;28;20262;-62
2022/02/19 07:17:04;;;;;;;1.77;0.40;;;4.20;99.90;;;;;;5037346;28;20498;-62
2022/02/19 07:19:34;;;;;;;3.10;0.47;;;4.20;99.90;;;;;;5046505;28;20485;-62
2022/02/19 07:22:04;;;;;;;2.10;0.63;;;4.20;99.90;;;;;;5045751;28;20493;-62
2022/02/19 07:24:34;;;;;;;5.80;1.10;;;4.20;99.90;;;;;;5045908;28;20469;-61
2022/02/19 07:27:02;;;;;;;3.40;0.80;;;4.20;99.90;;;;;;5046324;28;20519;-61
2022/02/19 07:29:32;;;;;;;6.07;0.80;;;4.20;99.90;;;;;;5045637;28;20835;-61
2022/02/19 07:32:02;;;;;;;1.77;0.60;;;4.20;99.90;;;;;;5045293;28;20532;-61
2022/02/19 07:34:30;;;;;;;3.27;0.60;;;4.20;99.90;;;;;;5046660;28;20471;-62
2022/02/19 07:36:58;;;;;;;4.57;0.60;;;4.20;99.90;;;;;;5041670;28;20863;-61
2022/02/19 07:39:26;;;;;;;2.50;0.70;;;4.30;99.90;;;;;;5038863;28;20501;-61
2022/02/19 07:42:02;;;;;;;4.07;0.97;;;4.30;99.90;;;;;;5045991;28;20475;-62
2022/02/19 07:44:59;;;;;;;4.67;0.60;;;4.40;99.90;;;;;;5026706;28;20474;-61
2022/02/19 07:47:47;;;;;;;2.63;0.60;;;4.40;99.90;;;;;;5026208;28;21050;-61
2022/02/19 07:59:32;;;;;;;4.10;0.90;;;4.70;99.90;;;;;;5038019;28;20478;-62
2022/02/19 08:02:00;;;;;;;4.07;1.03;;;4.70;99.90;;;;;;5045057;28;20902;-61
2022/02/19 08:04:29;;;;;;;3.23;0.70;;;4.70;99.90;;;;;;5046029;28;20318;-62
2022/02/19 08:06:58;;;;;;;1.30;0.60;;;4.70;99.90;;;;;;5021831;28;20737;-62
2022/02/19 08:09:26;;;;;;;2.93;0.90;;;4.80;99.90;;;;;;5023388;28;20467;-62
2022/02/19 08:11:55;;;;;;;4.77;0.80;;;4.80;99.90;;;;;;5027319;28;21229;-62
2022/02/19 08:14:23;;;;;;;2.63;0.60;;;4.80;99.90;;;;;;5032092;28;20534;-62
2022/02/19 08:16:51;;;;;;;3.77;0.70;;;4.90;99.90;;;;;;5040320;28;20478;-62
2022/02/19 08:19:20;;;;;;;2.80;0.60;;;4.80;99.90;;;;;;5048930;28;20470;-62
2022/02/19 08:21:49;;;;;;;4.17;0.70;;;4.90;99.90;;;;;;5044374;28;20827;-62
2022/02/19 08:24:17;;;;;;;2.20;0.80;;;4.90;99.90;;;;;;5026848;28;20472;-62
2022/02/19 08:26:45;;;;;;;3.63;0.80;;;4.90;99.90;;;;;;5027637;28;21036;-62
2022/02/19 08:29:13;;;;;;;1.13;0.40;;;4.90;99.90;;;;;;5038360;28;20244;-62
2022/02/19 08:31:41;;;;;;;3.53;0.53;;;4.90;99.90;;;;;;5038957;28;20507;-62
2022/02/19 08:34:10;;;;;;;2.17;0.77;;;4.90;99.90;;;;;;5039143;28;20478;-62
2022/02/19 08:36:38;;;;;;;1.93;0.57;;;5.00;99.90;;;;;;5031667;28;20458;-62
2022/02/19 08:39:08;;;;;;;2.00;0.47;;;4.90;99.90;;;;;;5050902;28;20501;-62
2022/02/19 08:41:37;;;;;;;1.67;0.50;;;4.90;99.90;;;;;;5028439;28;20482;-62
2022/02/19 08:44:05;;;;;;;1.23;0.40;;;4.80;99.90;;;;;;5038376;28;20509;-62
2022/02/19 08:46:33;;;;;;;0.40;0.30;;;4.70;99.90;;;;;;5039524;28;20495;-62
2022/02/19 08:49:01;;;;;;;0.90;0.40;;;4.50;99.90;;;;;;5044131;28;21055;-62
2022/02/19 08:51:29;;;;;;;0.77;0.30;;;4.40;99.90;;;;;;5042548;28;20478;-62
2022/02/19 08:53:58;;;;;;;0.90;0.40;;;4.30;99.90;;;;;;5047907;28;21050;-62
2022/02/19 08:56:27;;;;;;;1.90;0.60;;;4.10;99.90;;;;;;5041958;28;20480;-61
2022/02/19 08:58:55;;;;;;;2.10;0.50;;;4.00;99.90;;;;;;5036640;28;20563;-62
2022/02/19 09:01:27;;;;;;;2.00;0.70;;;4.00;99.90;;;;;;5038255;28;20479;-62
2022/02/19 09:03:56;;;;;;;1.57;0.70;;;4.00;99.90;;;;;;5036698;28;20473;-62
2022/02/19 09:06:24;;;;;;;2.93;0.70;;;4.00;99.90;;;;;;5042260;28;20507;-62
2022/02/19 09:08:52;;;;;;;2.93;1.00;;;4.10;99.90;;;;;;5049265;28;20527;-62
2022/02/19 09:11:20;;;;;;;3.33;0.80;;;4.10;99.90;;;;;;5031812;28;20860;-62
2022/02/19 09:13:54;;;;;;;4.23;1.10;;;4.20;99.90;;;;;;5023175;28;20505;-62
2022/02/19 09:16:22;;;;;;;4.40;1.00;;;4.20;99.90;;;;;;5040744;28;20555;-61
2022/02/19 09:18:50;;;;;;;4.20;0.87;;;4.30;99.90;;;;;;5038897;28;20468;-62
2022/02/19 09:21:18;;;;;;;6.03;1.50;;;4.30;99.90;;;;;;5049413;28;20482;-62
2022/02/19 09:23:47;;;;;;;6.60;1.93;;;4.30;99.90;;;;;;5036777;28;20459;-62
2022/02/19 09:26:15;;;;;;;9.77;1.93;;;4.40;99.90;;;;;;5037676;28;21075;-62
2022/02/19 09:28:43;;;;;;;7.13;1.67;;;4.40;99.90;;;;;;5030322;28;20467;-61
2022/02/19 09:31:12;;;;;;;9.07;1.57;;;4.50;99.90;;;;;;5030597;28;20471;-61
2022/02/19 09:33:40;;;;;;;5.37;1.73;;;4.50;99.90;;;;;;5030431;28;20471;-62
2022/02/19 09:36:09;;;;;;;5.97;1.67;;;4.50;99.90;;;;;;5027731;28;20832;-61
2022/02/19 09:38:38;;;;;;;7.17;1.67;;;4.50;99.90;;;;;;5027149;28;20531;-61
2022/02/19 09:41:07;;;;;;;7.90;1.80;;;4.60;99.90;;;;;;5035784;28;20988;-61
2022/02/19 09:43:36;;;;;;;6.10;1.73;;;4.60;99.90;;;;;;5041321;28;20970;-61
2022/02/19 09:46:06;;;;;;;7.07;1.77;;;4.70;99.90;;;;;;5034975;28;20470;-61
2022/02/19 09:48:37;;;;;;;7.53;2.10;;;4.70;99.90;;;;;;5047046;28;20470;-62
2022/02/19 09:51:08;;;;;;;7.33;1.83;;;4.90;99.90;;;;;;5034531;28;20532;-61
2022/02/19 09:53:37;;;;;;;10.90;2.13;;;4.90;99.90;;;;;;5029456;28;20477;-63
2022/02/19 09:56:06;;;;;;;7.10;2.00;;;4.90;99.90;;;;;;5033909;28;20263;-63
2022/02/19 09:58:34;;;;;;;11.87;1.83;;;4.80;99.90;;;;;;5046240;28;20476;-63
2022/02/19 10:01:19;;;;;;;5.83;1.53;;;4.80;99.90;;;;;;5033710;28;20474;-63
2022/02/19 10:03:57;;;;;;;5.67;1.70;;;4.70;99.90;;;;;;5027612;28;20643;-63
2022/02/19 10:06:29;;;;;;;9.17;1.70;;;4.70;99.90;;;;;;5018413;28;20562;-64
2022/02/19 10:09:11;;;;;;;8.03;2.07;;;4.70;99.90;;;;;;5021976;28;20491;-63
2022/02/19 10:11:40;;;;;;;10.63;1.70;;;4.70;99.90;;;;;;5034289;28;20481;-63
2022/02/19 10:14:25;;;;;;;9.13;1.77;;;4.80;99.90;;;;;;5033803;28;20552;-63
2022/02/19 10:17:16;;;;;;;9.27;1.97;;;4.90;99.90;;;;;;5036736;28;20249;-63
2022/02/19 10:19:54;;;;;;;6.87;1.83;;;5.10;99.90;;;;;;5036080;28;20475;-63
2022/02/19 10:22:25;;;;;;;7.60;2.13;;;5.20;99.90;;;;;;5049235;28;20247;-63
2022/02/19 10:24:55;;;;;;;9.43;2.67;;;5.30;99.90;;;;;;5046488;28;20983;-63
2022/02/19 10:27:24;;;;;;;6.47;2.10;;;5.50;99.90;;;;;;5051595;28;20528;-63
2022/02/19 10:29:58;;;;;;;7.10;1.80;;;5.70;99.90;;;;;;5050350;28;20284;-63
2022/02/19 10:32:26;;;;;;;7.87;1.67;;;5.70;99.90;;;;;;5034466;28;20316;-63
2022/02/19 10:34:57;;;;;;;7.40;1.53;;;5.60;99.90;;;;;;5040411;28;20485;-63
2022/02/19 10:37:28;;;;;;;6.57;1.67;;;5.60;99.90;;;;;;5044049;28;20234;-63
2022/02/19 10:39:58;;;;;;;4.93;1.60;;;5.60;99.90;;;;;;5048328;28;20468;-63
2022/02/19 10:42:34;;;;;;;7.73;1.50;;;5.60;99.90;;;;;;5037027;28;20474;-63
2022/02/19 10:45:10;;;;;;;3.63;1.07;;;5.70;99.90;;;;;;5041549;28;20243;-62
2022/02/19 10:47:39;;;;;;;4.13;1.17;;;5.70;99.90;;;;;;5034386;28;20259;-63
2022/02/19 10:50:11;;;;;;;4.73;0.93;;;5.90;99.90;;;;;;5031921;28;20592;-63
2022/02/19 10:52:53;;;;;;;2.10;1.03;;;6.10;99.90;;;;;;5030875;28;20292;-63
2022/02/19 10:55:23;;;;;;;5.27;1.40;;;6.20;99.90;;;;;;5044638;28;20245;-63
2022/02/19 10:57:56;;;;;;;3.77;1.30;;;6.30;99.90;;;;;;5046716;28;20298;-63
2022/02/19 11:00:24;;;;;;;4.20;1.50;;;6.60;99.90;;;;;;5032368;28;20250;-63
2022/02/19 11:02:53;;;;;;;5.17;1.67;;;6.70;99.90;;;;;;5033175;28;20254;-63
2022/02/19 11:05:23;;;;;;;4.33;1.30;;;6.50;99.90;;;;;;5031852;28;20232;-63
2022/02/19 11:07:52;;;;;;;4.67;0.90;;;6.30;99.90;;;;;;5032910;28;20643;-63
2022/02/19 11:10:22;;;;;;;3.67;1.00;;;6.40;99.90;;;;;;5032834;28;20239;-63
2022/02/19 11:12:50;;;;;;;3.67;1.00;;;6.50;99.90;;;;;;5032297;28;20285;-63
2022/02/19 11:15:19;;;;;;;3.93;0.93;;;6.60;99.90;;;;;;5032586;28;20315;-63
2022/02/19 11:17:48;;;;;;;4.13;1.07;;;6.40;99.90;;;;;;5042955;28;20239;-62
2022/02/19 11:20:17;;;;;;;5.60;1.30;;;6.30;99.90;;;;;;5033866;28;20236;-63
2022/02/19 11:22:47;;;;;;;3.17;0.87;;;6.00;99.90;;;;;;5032453;28;20247;-63
2022/02/19 11:25:18;;;;;;;7.30;1.40;;;5.80;99.90;;;;;;5032664;28;20236;-63
2022/02/19 11:27:49;;;;;;;5.73;1.37;;;5.70;99.90;;;;;;5032848;28;20264;-63
2022/02/19 11:30:22;;;;;;;5.00;1.47;;;5.90;99.90;;;;;;5032179;28;20231;-63
2022/02/19 11:32:54;;;;;;;8.57;2.10;;;6.10;99.90;;;;;;5032594;28;20244;-63
2022/02/19 11:35:33;;;;;;;7.63;1.87;;;6.10;99.90;;;;;;5031823;28;20319;-63
2022/02/19 11:38:20;;;;;;;8.10;1.40;;;6.00;99.90;;;;;;5044675;28;20246;-63
2022/02/19 11:40:52;;;;;;;9.00;2.37;;;5.90;99.90;;;;;;5031925;28;20319;-63
2022/02/19 11:43:38;;;;;;;12.40;1.60;;;5.80;99.90;;;;;;5030858;28;20270;-63
2022/02/19 11:46:12;;;;;;;5.93;1.70;;;5.80;99.90;;;;;;5036746;28;20263;-63
2022/02/19 11:48:42;;;;;;;8.60;1.70;;;5.80;99.90;;;;;;5037939;28;20293;-63
2022/02/19 11:51:11;;;;;;;5.40;1.50;;;5.70;99.90;;;;;;5035851;28;20302;-63
2022/02/19 11:53:41;;;;;;;5.27;1.90;;;5.60;99.90;;;;;;5031638;28;20251;-63
2022/02/19 11:56:10;;;;;;;8.67;2.07;;;5.60;99.90;;;;;;5031707;28;20235;-63
2022/02/19 11:58:52;;;;;;;7.60;2.07;;;5.40;99.90;;;;;;5035560;28;20237;-63
2022/02/19 12:01:20;;;;;;;7.57;1.70;;;5.40;99.90;;;;;;5029256;28;20696;-63
2022/02/19 12:03:49;;;;;;;5.73;1.73;;;5.30;99.90;;;;;;5026439;28;20754;-63
2022/02/19 12:06:20;;;;;;;7.73;1.70;;;5.30;99.90;;;;;;5039034;28;20245;-63
2022/02/19 12:09:08;;;;;;;5.27;1.20;;;5.20;99.90;;;;;;5031562;28;20247;-63
2022/02/19 12:12:07;;;;;;;5.60;1.60;;;5.00;99.90;;;;;;5031685;28;20458;-63
2022/02/19 12:14:57;;;;;;;6.67;1.73;;;5.10;99.90;;;;;;4997788;28;20247;-63
2022/02/19 12:17:48;;;;;;;8.17;1.80;;;5.20;99.90;;;;;;5027944;28;20589;-63
2022/02/19 12:20:32;;;;;;;9.50;2.50;;;5.40;99.90;;;;;;5031740;28;20239;-63
2022/02/19 12:23:05;;;;;;;9.53;1.93;;;5.60;99.90;;;;;;5031410;28;20648;-63
2022/02/19 12:26:07;;;;;;;9.10;1.87;;;5.70;99.90;;;;;;5011809;28;20294;-63
2022/02/19 12:28:40;;;;;;;7.17;1.67;;;5.70;99.90;;;;;;5029426;28;20605;-63
2022/02/19 12:31:15;;;;;;;11.33;2.20;;;5.80;99.90;;;;;;5031526;28;20274;-63
2022/02/19 12:33:46;;;;;;;8.67;2.10;;;6.00;99.90;;;;;;5024423;28;20234;-63
2022/02/19 12:36:15;;;;;;;8.93;1.93;;;6.00;99.90;;;;;;5028738;28;20240;-63
2022/02/19 12:38:49;;;;;;;10.73;2.20;;;6.10;99.90;;;;;;5026991;28;20246;-63
2022/02/19 12:41:19;;;;;;;8.07;2.00;;;6.00;99.90;;;;;;5025811;28;21378;-63
2022/02/19 12:44:08;;;;;;;9.80;1.70;;;5.90;99.90;;;;;;5025851;28;20252;-63
2022/02/19 12:46:38;;;;;;;8.27;1.70;;;5.60;99.90;;;;;;5026537;28;20255;-63
2022/02/19 12:49:08;;;;;;;9.33;1.80;;;5.40;99.90;;;;;;5026335;28;20297;-63
2022/02/19 12:51:43;;;;;;;11.37;2.53;;;5.40;99.90;;;;;;5025193;28;20256;-63
2022/02/19 12:54:11;;;;;;;9.37;1.90;;;5.50;99.90;;;;;;5026351;28;20233;-63
2022/02/19 12:56:42;;;;;;;10.80;1.90;;;5.60;99.90;;;;;;5026747;28;20241;-63
2022/02/19 12:59:11;;;;;;;8.13;1.70;;;5.70;99.90;;;;;;5025894;28;20248;-63
2022/02/19 13:01:39;;;;;;;11.43;2.33;;;5.80;99.90;;;;;;5024687;28;20277;-63
2022/02/19 13:04:08;;;;;;;7.70;1.60;;;5.80;99.90;;;;;;5025876;28;20700;-63
2022/02/19 13:06:46;;;;;;;9.07;2.00;;;5.90;99.90;;;;;;5025880;28;20443;-63
2022/02/19 13:09:21;;;;;;;10.57;1.63;;;6.00;99.90;;;;;;5026331;28;20239;-64
2022/02/19 13:11:54;;;;;;;7.93;1.60;;;6.00;99.90;;;;;;5024329;28;20257;-63
2022/02/19 13:14:25;;;;;;;7.37;1.40;;;6.00;99.90;;;;;;5025177;28;20578;-63
2022/02/19 13:17:00;;;;;;;9.20;1.70;;;6.00;99.90;;;;;;5025710;28;20232;-63
2022/02/19 13:19:30;;;;;;;11.63;2.07;;;6.00;99.90;;;;;;5024935;28;20243;-63
2022/02/19 13:22:06;;;;;;;10.67;1.90;;;6.10;99.90;;;;;;5024560;28;20262;-63
2022/02/19 13:24:36;;;;;;;5.30;1.50;;;6.10;99.90;;;;;;5025439;28;20243;-62
2022/02/19 13:27:17;;;;;;;10.23;1.50;;;6.10;99.90;;;;;;5024783;28;20299;-63
2022/02/19 13:29:50;;;;;;;6.67;1.70;;;6.10;99.90;;;;;;5028901;28;20744;-63